Time;durP1;ratioP1;P1;durP2;ratioP2;P2;SDS_P1;SDS_P2;PMS_P1;PMS_P2;Temp;Humidity;BMP_temperature;BMP_pressure;BME280_temperature;BME280_humidity;BME280_pressure;Samples;Min_cycle;Max_cycle;Signal;HPM_P1;HPM_P2
2023/02/09 00:00:52;;;;;;;21.97;9.13;;;;;;;-145.18;100.00;60484.78;5073295;28;20758;-72
2023/02/09 00:03:17;;;;;;;20.50;9.57;;;;;;;-145.18;100.00;60484.78;5070922;28;20025;-72
2023/02/09 00:05:42;;;;;;;22.70;10.73;;;;;;;-145.18;100.00;60484.78;5073062;28;20392;-71
2023/02/09 00:08:08;;;;;;;22.00;10.73;;;;;;;-145.18;100.00;60484.78;5079824;28;20158;-72
2023/02/09 00:10:33;;;;;;;23.40;11.17;;;;;;;-145.18;100.00;60484.78;5073426;28;20028;-72
2023/02/09 00:16:05;;;;;;;24.40;12.33;;;;;;;-145.18;100.00;60484.78;5093027;28;20449;-71
2023/02/09 00:18:32;;;;;;;25.00;11.30;;;;;;;-145.18;100.00;60484.78;5052963;28;20274;-71
2023/02/09 00:21:02;;;;;;;25.17;11.97;;;;;;;-145.18;100.00;60484.78;5052536;28;20287;-71
2023/02/09 00:23:30;;;;;;;22.57;11.10;;;;;;;-145.18;100.00;60484.78;5046547;28;20270;-72
2023/02/09 00:26:00;;;;;;;25.93;11.80;;;;;;;-145.18;100.00;60484.78;5072565;28;20262;-71
2023/02/09 00:28:26;;;;;;;26.13;11.63;;;;;;;-145.18;100.00;60484.78;5073204;28;20267;-72
2023/02/09 00:30:53;;;;;;;23.50;11.57;;;;;;;-145.18;100.00;60484.78;5072620;28;20761;-72
2023/02/09 00:33:18;;;;;;;25.90;11.50;;;;;;;-145.18;100.00;60484.78;5072472;28;20032;-72
2023/02/09 00:35:43;;;;;;;23.50;11.13;;;;;;;-145.18;100.00;60484.78;5072586;28;20267;-72
2023/02/09 00:38:11;;;;;;;26.63;11.63;;;;;;;-145.18;100.00;60484.78;5074963;28;20017;-72
2023/02/09 00:40:38;;;;;;;23.83;11.70;;;;;;;-145.18;100.00;60484.78;5072123;28;20035;-72
2023/02/09 00:43:05;;;;;;;26.63;12.30;;;;;;;-145.18;100.00;60484.78;5086445;28;20320;-71
2023/02/09 00:45:31;;;;;;;25.87;12.07;;;;;;;-145.18;100.00;60484.78;5092623;28;20320;-72
2023/02/09 00:47:57;;;;;;;26.50;12.10;;;;;;;-145.18;100.00;60484.78;5078244;28;20266;-72
2023/02/09 00:50:22;;;;;;;25.10;12.03;;;;;;;-145.18;100.00;60484.78;5070312;28;20070;-71
2023/02/09 00:52:48;;;;;;;25.87;11.67;;;;;;;-145.18;100.00;60484.78;5070585;28;20638;-72
2023/02/09 00:55:13;;;;;;;22.03;11.67;;;;;;;-145.18;100.00;60484.78;5072191;28;20103;-71
2023/02/09 00:57:39;;;;;;;27.97;12.97;;;;;;;-145.18;100.00;60484.78;5071923;28;20024;-71
2023/02/09 01:00:05;;;;;;;25.83;12.50;;;;;;;-145.18;100.00;60484.78;5072253;28;20020;-71
2023/02/09 01:02:30;;;;;;;26.90;11.80;;;;;;;-145.18;100.00;60484.78;5073767;28;20119;-71
2023/02/09 01:04:56;;;;;;;26.20;12.20;;;;;;;-145.18;100.00;60484.78;5071812;28;20346;-71
2023/02/09 01:07:21;;;;;;;24.80;11.37;;;;;;;-145.18;100.00;60484.78;5070692;28;20107;-72
2023/02/09 01:09:47;;;;;;;28.10;12.00;;;;;;;-145.18;100.00;60484.78;5071860;28;20086;-72
2023/02/09 01:12:12;;;;;;;27.00;11.97;;;;;;;-145.18;100.00;60484.78;5075628;28;20103;-71
2023/02/09 01:14:38;;;;;;;31.40;12.53;;;;;;;-145.18;100.00;60484.78;5076412;28;20051;-71
2023/02/09 01:17:04;;;;;;;28.63;12.70;;;;;;;-145.18;100.00;60484.78;5071505;28;20028;-72
2023/02/09 01:19:29;;;;;;;30.47;13.23;;;;;;;-145.18;100.00;60484.78;5070532;28;20066;-72
2023/02/09 01:21:55;;;;;;;26.93;12.40;;;;;;;-145.18;100.00;60484.78;5071765;28;20274;-72
2023/02/09 01:24:20;;;;;;;26.60;11.97;;;;;;;-145.18;100.00;60484.78;5069987;28;20031;-72
2023/02/09 01:26:46;;;;;;;27.50;12.57;;;;;;;-145.18;100.00;60484.78;5071198;28;20024;-72
2023/02/09 01:29:13;;;;;;;26.87;11.90;;;;;;;-145.18;100.00;60484.78;5071630;28;20025;-72
2023/02/09 01:31:39;;;;;;;27.40;12.17;;;;;;;-145.18;100.00;60484.78;5071675;28;20028;-72
2023/02/09 01:34:04;;;;;;;26.70;12.07;;;;;;;-145.18;100.00;60484.78;5089643;28;20293;-71
2023/02/09 01:36:31;;;;;;;28.30;12.27;;;;;;;-145.18;100.00;60484.78;5084617;28;20033;-71
2023/02/09 01:39:00;;;;;;;27.53;12.57;;;;;;;-145.18;100.00;60484.78;5064205;28;20040;-71
2023/02/09 01:41:26;;;;;;;27.40;12.23;;;;;;;-145.18;100.00;60484.78;5071295;28;20619;-71
2023/02/09 01:43:54;;;;;;;25.53;12.30;;;;;;;-145.18;100.00;60484.78;5071200;28;20258;-71
2023/02/09 01:46:20;;;;;;;25.67;12.63;;;;;;;-145.18;100.00;60484.78;5071332;28;20028;-71
2023/02/09 01:48:47;;;;;;;26.40;12.27;;;;;;;-145.18;100.00;60484.78;5070466;28;20697;-72
2023/02/09 01:51:13;;;;;;;26.00;11.87;;;;;;;-145.18;100.00;60484.78;5071067;28;20278;-71
2023/02/09 01:53:39;;;;;;;25.83;11.77;;;;;;;-145.18;100.00;60484.78;5069786;28;20292;-71
2023/02/09 01:56:14;;;;;;;26.53;12.27;;;;;;;-145.18;100.00;60484.78;5071233;28;20270;-71
2023/02/09 01:58:40;;;;;;;23.47;11.17;;;;;;;-145.18;100.00;60484.78;5071525;28;20376;-71
2023/02/09 02:01:05;;;;;;;27.17;12.00;;;;;;;-145.18;100.00;60484.78;5071472;28;20262;-75
2023/02/09 02:03:31;;;;;;;27.50;12.10;;;;;;;-145.18;100.00;60484.78;5084216;22;20059;-70
2023/02/09 02:06:03;;;;;;;22.20;11.40;;;;;;;-145.18;100.00;60484.78;5048380;28;20115;-70
2023/02/09 02:08:34;;;;;;;25.53;11.83;;;;;;;-145.18;100.00;60484.78;5046606;28;20140;-71
2023/02/09 02:11:00;;;;;;;27.05;12.48;;;;;;;-145.18;100.00;60484.78;5070520;28;20293;-71
2023/02/09 02:13:27;;;;;;;26.87;12.00;;;;;;;-145.18;100.00;60484.78;5070827;28;20049;-71
2023/02/09 02:16:18;;;;;;;26.07;12.47;;;;;;;-145.18;100.00;60484.78;5071635;28;20676;-71
2023/02/09 02:19:04;;;;;;;24.03;12.10;;;;;;;-145.18;100.00;60484.78;5043027;28;20106;-71
2023/02/09 02:22:14;;;;;;;25.70;11.87;;;;;;;-145.18;100.00;60484.78;5070550;28;20278;-71
2023/02/09 02:24:48;;;;;;;25.43;12.13;;;;;;;-145.18;100.00;60484.78;5069312;28;20285;-71
2023/02/09 02:27:45;;;;;;;24.87;11.70;;;;;;;-145.18;100.00;60484.78;5070557;28;20785;-71
2023/02/09 02:30:22;;;;;;;23.80;10.43;;;;;;;-145.18;100.00;60484.78;5074629;28;20291;-71
2023/02/09 02:33:00;;;;;;;24.90;11.87;;;;;;;-145.18;100.00;60484.78;5063962;28;20279;-70
2023/02/09 02:35:40;;;;;;;27.77;12.60;;;;;;;-145.18;100.00;60484.78;5070950;28;20286;-71
2023/02/09 02:38:53;;;;;;;29.23;12.30;;;;;;;-145.18;100.00;60484.78;5072659;28;20297;-71
2023/02/09 02:41:27;;;;;;;27.47;12.13;;;;;;;-145.18;100.00;60484.78;5067185;28;20283;-71
2023/02/09 02:44:04;;;;;;;29.27;12.97;;;;;;;-145.18;100.00;60484.78;5054520;28;20303;-70
2023/02/09 02:46:44;;;;;;;28.33;13.43;;;;;;;-145.18;100.00;60484.78;5054722;28;20291;-70
2023/02/09 02:49:19;;;;;;;31.70;13.93;;;;;;;-145.18;100.00;60484.78;5066869;28;20777;-71
2023/02/09 02:51:49;;;;;;;31.37;13.80;;;;;;;-145.18;100.00;60484.78;5074398;28;20273;-71
2023/02/09 02:54:27;;;;;;;31.07;14.30;;;;;;;-145.18;100.00;60484.78;5073317;28;20317;-71
2023/02/09 02:57:00;;;;;;;32.07;14.27;;;;;;;-145.18;100.00;60484.78;5074415;28;20306;-71
2023/02/09 02:59:31;;;;;;;31.70;14.40;;;;;;;-145.18;100.00;60484.78;5074556;28;20353;-71
2023/02/09 03:02:06;;;;;;;33.97;14.60;;;;;;;-145.18;100.00;60484.78;5073716;28;20294;-71
2023/02/09 03:04:34;;;;;;;32.43;14.27;;;;;;;-145.18;100.00;60484.78;5072665;28;20028;-71
2023/02/09 03:07:03;;;;;;;32.03;14.50;;;;;;;-145.18;100.00;60484.78;5073948;28;20271;-68
2023/02/09 03:09:28;;;;;;;29.53;14.23;;;;;;;-145.18;100.00;60484.78;5072805;28;20365;-69
2023/02/09 03:12:01;;;;;;;34.93;15.03;;;;;;;-145.18;100.00;60484.78;5070515;28;20350;-70
2023/02/09 03:14:42;;;;;;;33.30;14.87;;;;;;;-145.18;100.00;60484.78;5073384;28;20028;-69
2023/02/09 03:17:36;;;;;;;31.83;13.57;;;;;;;-145.18;100.00;60484.78;5073986;28;20298;-69
2023/02/09 03:20:09;;;;;;;27.70;13.53;;;;;;;-145.18;100.00;60484.78;5047908;28;20294;-69
2023/02/09 03:22:41;;;;;;;24.77;12.13;;;;;;;-145.18;100.00;60484.78;5072101;28;20282;-63
2023/02/09 03:25:16;;;;;;;28.93;12.87;;;;;;;-145.18;100.00;60484.78;5073827;28;20338;-65
2023/02/09 03:28:11;;;;;;;26.40;12.73;;;;;;;-145.18;100.00;60484.78;5073355;28;20626;-63
2023/02/09 03:30:41;;;;;;;30.50;12.30;;;;;;;-145.18;100.00;60484.78;5064479;28;20282;-68
2023/02/09 03:33:19;;;;;;;30.70;13.50;;;;;;;-145.18;100.00;60484.78;5053787;28;20801;-68
2023/02/09 03:35:48;;;;;;;32.40;12.93;;;;;;;-145.18;100.00;60484.78;5073441;28;20273;-69
2023/02/09 03:38:13;;;;;;;28.30;13.00;;;;;;;-145.18;100.00;60484.78;5071727;28;21160;-68
2023/02/09 03:40:39;;;;;;;26.27;12.53;;;;;;;-145.18;100.00;60484.78;5073601;28;20283;-68
2023/02/09 03:43:04;;;;;;;26.40;12.67;;;;;;;-145.18;100.00;60484.78;5073034;28;20028;-68
2023/02/09 03:45:29;;;;;;;28.00;12.97;;;;;;;-145.18;100.00;60484.78;5072853;28;20028;-68
2023/02/09 03:47:55;;;;;;;27.20;12.73;;;;;;;-145.18;100.00;60484.78;5073575;28;20036;-69
2023/02/09 03:50:20;;;;;;;25.77;13.13;;;;;;;-145.18;100.00;60484.78;5070144;28;20104;-71
2023/02/09 03:52:45;;;;;;;25.10;12.17;;;;;;;-145.18;100.00;60484.78;5071736;28;20047;-71
2023/02/09 03:55:11;;;;;;;24.80;12.03;;;;;;;-145.18;100.00;60484.78;5070028;28;20020;-69
2023/02/09 03:57:37;;;;;;;25.60;11.40;;;;;;;-145.18;100.00;60484.78;5053218;28;20036;-68
2023/02/09 04:00:04;;;;;;;23.73;11.57;;;;;;;-145.18;100.00;60484.78;5059209;28;20081;-68
2023/02/09 04:02:29;;;;;;;26.03;11.93;;;;;;;-145.18;100.00;60484.78;5073020;28;20270;-69
2023/02/09 04:04:55;;;;;;;26.20;11.43;;;;;;;-145.18;100.00;60484.78;5071784;28;20998;-68
2023/02/09 04:07:20;;;;;;;24.83;11.13;;;;;;;-145.18;100.00;60484.78;5071530;28;20096;-68
2023/02/09 04:09:46;;;;;;;24.17;10.57;;;;;;;-145.18;100.00;60484.78;5072505;28;20039;-71
2023/02/09 04:12:11;;;;;;;22.83;11.37;;;;;;;-145.18;100.00;60484.78;5073279;28;20028;-68
2023/02/09 04:14:36;;;;;;;20.70;9.97;;;;;;;-145.18;100.00;60484.78;5072290;28;20115;-68
2023/02/09 04:17:02;;;;;;;20.83;10.30;;;;;;;-145.18;100.00;60484.78;5072976;28;20031;-69
2023/02/09 04:19:27;;;;;;;24.00;11.07;;;;;;;-145.18;100.00;60484.78;5068278;28;20020;-68
2023/02/09 04:21:52;;;;;;;20.27;10.13;;;;;;;-145.18;100.00;60484.78;5071394;28;20134;-68
2023/02/09 04:24:18;;;;;;;20.57;9.80;;;;;;;-145.18;100.00;60484.78;5072015;28;20031;-68
2023/02/09 04:26:43;;;;;;;19.67;9.53;;;;;;;-145.18;100.00;60484.78;5069386;28;20016;-68
2023/02/09 04:29:09;;;;;;;20.63;10.00;;;;;;;-145.18;100.00;60484.78;5072222;28;20107;-71
2023/02/09 04:31:34;;;;;;;23.37;10.37;;;;;;;-145.18;100.00;60484.78;5072844;28;20020;-68
2023/02/09 04:34:00;;;;;;;24.33;9.83;;;;;;;-145.18;100.00;60484.78;5071800;28;20497;-68
2023/02/09 04:36:25;;;;;;;19.13;9.47;;;;;;;-145.18;100.00;60484.78;5071395;28;20028;-68
2023/02/09 04:38:51;;;;;;;21.73;10.10;;;;;;;-145.18;100.00;60484.78;5070343;28;20464;-68
2023/02/09 04:41:16;;;;;;;17.20;9.13;;;;;;;-145.18;100.00;60484.78;5072490;28;20020;-68
2023/02/09 04:43:42;;;;;;;21.40;9.43;;;;;;;-145.18;100.00;60484.78;5072137;28;20027;-68
2023/02/09 04:46:11;;;;;;;19.80;9.70;;;;;;;-145.18;100.00;60484.78;5072512;28;20021;-68
2023/02/09 04:48:37;;;;;;;18.13;8.90;;;;;;;-145.18;100.00;60484.78;5071099;28;20056;-68
2023/02/09 04:51:02;;;;;;;22.60;9.73;;;;;;;-145.18;100.00;60484.78;5071783;28;20298;-68
2023/02/09 04:53:28;;;;;;;23.13;9.40;;;;;;;-145.18;100.00;60484.78;5070056;28;20758;-69
2023/02/09 04:55:54;;;;;;;18.87;9.07;;;;;;;-145.18;100.00;60484.78;5072363;28;20039;-69
2023/02/09 05:01:05;;;;;;;18.30;8.80;;;;;;;-145.18;100.00;60484.78;5071609;28;20059;-69
2023/02/09 05:03:31;;;;;;;19.07;9.40;;;;;;;-145.18;100.00;60484.78;5070404;28;20305;-69
2023/02/09 05:05:59;;;;;;;23.17;9.30;;;;;;;-145.18;100.00;60484.78;5069289;28;20310;-69
2023/02/09 05:08:24;;;;;;;21.07;9.37;;;;;;;-145.18;100.00;60484.78;5070155;28;20028;-68
2023/02/09 05:10:51;;;;;;;21.07;9.00;;;;;;;-145.18;100.00;60484.78;5068501;28;20815;-69
2023/02/09 05:13:17;;;;;;;20.53;9.10;;;;;;;-145.18;100.00;60484.78;5071899;28;20029;-69
2023/02/09 05:15:42;;;;;;;20.33;9.20;;;;;;;-145.18;100.00;60484.78;5070664;28;20549;-69
2023/02/09 05:18:08;;;;;;;18.83;9.00;;;;;;;-145.18;100.00;60484.78;5071476;28;20271;-69
2023/02/09 05:20:35;;;;;;;21.30;9.10;;;;;;;-145.18;100.00;60484.78;5070432;28;20491;-69
2023/02/09 05:23:00;;;;;;;21.87;9.30;;;;;;;-145.18;100.00;60484.78;5068332;28;20025;-69
2023/02/09 05:25:26;;;;;;;17.60;7.63;;;;;;;-145.18;100.00;60484.78;5071771;28;20259;-69
2023/02/09 05:27:51;;;;;;;20.23;7.97;;;;;;;-145.18;100.00;60484.78;5070882;28;20099;-69
2023/02/09 05:30:17;;;;;;;17.70;7.77;;;;;;;-145.18;100.00;60484.78;5064081;28;20020;-69
2023/02/09 05:32:42;;;;;;;21.13;8.67;;;;;;;-145.18;100.00;60484.78;5071574;28;20107;-69
2023/02/09 05:35:07;;;;;;;18.00;8.40;;;;;;;-145.18;100.00;60484.78;5070349;28;20016;-69
2023/02/09 05:37:33;;;;;;;18.97;8.57;;;;;;;-145.18;100.00;60484.78;5069729;28;20028;-69
2023/02/09 05:39:58;;;;;;;20.20;9.07;;;;;;;-145.18;100.00;60484.78;5071689;28;20103;-70
2023/02/09 05:42:26;;;;;;;20.80;9.67;;;;;;;-145.18;100.00;60484.78;5070576;28;20388;-69
2023/02/09 05:44:52;;;;;;;20.03;9.17;;;;;;;-145.18;100.00;60484.78;5071337;28;20039;-70
2023/02/09 05:47:19;;;;;;;20.40;8.97;;;;;;;-145.18;100.00;60484.78;5070538;28;20304;-69
2023/02/09 05:49:45;;;;;;;20.20;9.43;;;;;;;-145.18;100.00;60484.78;5064331;28;20395;-70
2023/02/09 05:52:15;;;;;;;20.37;8.97;;;;;;;-145.18;100.00;60484.78;5069703;28;20286;-69
2023/02/09 05:54:41;;;;;;;19.00;9.30;;;;;;;-145.18;100.00;60484.78;5070676;28;20375;-69
2023/02/09 05:57:06;;;;;;;22.07;10.37;;;;;;;-145.18;100.00;60484.78;5069967;28;20288;-69
2023/02/09 05:59:32;;;;;;;19.37;9.37;;;;;;;-145.18;100.00;60484.78;5069522;28;20051;-69
2023/02/09 06:01:58;;;;;;;20.57;9.33;;;;;;;-145.18;100.00;60484.78;5071066;28;20036;-69
2023/02/09 06:04:24;;;;;;;17.80;8.73;;;;;;;-145.18;100.00;60484.78;5073381;28;20025;-69
2023/02/09 06:06:50;;;;;;;19.63;9.03;;;;;;;-145.18;100.00;60484.78;5074577;28;20276;-69
2023/02/09 06:09:16;;;;;;;18.60;9.00;;;;;;;-145.18;100.00;60484.78;5074347;28;20358;-70
2023/02/09 06:11:41;;;;;;;20.30;8.90;;;;;;;-145.18;100.00;60484.78;5074819;28;20032;-69
2023/02/09 06:14:07;;;;;;;19.77;9.37;;;;;;;-145.18;100.00;60484.78;5073719;28;20032;-70
2023/02/09 06:16:32;;;;;;;21.27;9.57;;;;;;;-145.18;100.00;60484.78;5072841;28;20388;-69
2023/02/09 06:18:57;;;;;;;21.40;8.80;;;;;;;-145.18;100.00;60484.78;5074095;28;20056;-69
2023/02/09 06:21:23;;;;;;;21.57;9.73;;;;;;;-145.18;100.00;60484.78;5074570;28;20040;-69
2023/02/09 06:23:49;;;;;;;21.37;9.43;;;;;;;-145.18;100.00;60484.78;5072391;28;20020;-69
2023/02/09 06:26:16;;;;;;;20.23;9.60;;;;;;;-145.18;100.00;60484.78;5071701;28;20020;-69
2023/02/09 06:28:42;;;;;;;22.30;10.20;;;;;;;-145.18;100.00;60484.78;5075347;28;20660;-70
2023/02/09 06:31:09;;;;;;;22.43;9.90;;;;;;;-145.18;100.00;60484.78;5074961;28;20396;-69
2023/02/09 06:33:35;;;;;;;20.60;9.50;;;;;;;-145.18;100.00;60484.78;5074240;28;20100;-69
2023/02/09 06:36:01;;;;;;;21.97;9.77;;;;;;;-145.18;100.00;60484.78;5074448;28;20261;-69
2023/02/09 06:38:29;;;;;;;22.63;9.80;;;;;;;-145.18;100.00;60484.78;5071455;28;20385;-69
2023/02/09 06:40:55;;;;;;;21.30;10.23;;;;;;;-145.18;100.00;60484.78;5071254;28;20278;-69
2023/02/09 06:43:20;;;;;;;21.43;9.13;;;;;;;-145.18;100.00;60484.78;5073110;28;20262;-69
2023/02/09 06:45:46;;;;;;;20.07;9.37;;;;;;;-145.18;100.00;60484.78;5073697;28;20036;-69
2023/02/09 06:48:11;;;;;;;18.53;9.37;;;;;;;-145.18;100.00;60484.78;5074143;28;20534;-69
2023/02/09 06:50:38;;;;;;;22.63;9.40;;;;;;;-145.18;100.00;60484.78;5072772;28;20109;-69
2023/02/09 06:53:04;;;;;;;22.03;9.77;;;;;;;-145.18;100.00;60484.78;5072729;28;20086;-68
2023/02/09 06:55:31;;;;;;;20.57;9.60;;;;;;;-145.18;100.00;60484.78;5072623;28;20823;-69
2023/02/09 06:57:56;;;;;;;22.40;9.20;;;;;;;-145.18;100.00;60484.78;5074217;28;20775;-69
2023/02/09 07:00:22;;;;;;;21.73;9.67;;;;;;;-145.18;100.00;60484.78;5074440;28;20330;-69
2023/02/09 07:02:48;;;;;;;17.87;8.90;;;;;;;-145.18;100.00;60484.78;5055069;28;20024;-69
2023/02/09 07:05:16;;;;;;;19.33;8.90;;;;;;;-145.18;100.00;60484.78;5071337;28;20029;-69
2023/02/09 07:07:42;;;;;;;22.17;10.20;;;;;;;-145.18;100.00;60484.78;5072462;28;20055;-69
2023/02/09 07:10:10;;;;;;;21.10;9.00;;;;;;;-145.18;100.00;60484.78;5073997;28;20253;-69
2023/02/09 07:12:35;;;;;;;24.23;10.00;;;;;;;-145.18;100.00;60484.78;5073964;28;20738;-69
2023/02/09 07:15:01;;;;;;;22.90;9.00;;;;;;;-145.18;100.00;60484.78;5072189;28;20085;-68
2023/02/09 07:17:30;;;;;;;25.17;9.63;;;;;;;-145.18;100.00;60484.78;5073775;28;20024;-68
2023/02/09 07:19:56;;;;;;;23.57;9.57;;;;;;;-145.18;100.00;60484.78;5073267;28;20024;-69
2023/02/09 07:22:24;;;;;;;22.67;9.73;;;;;;;-145.18;100.00;60484.78;5072026;28;20020;-69
2023/02/09 07:24:50;;;;;;;20.80;9.43;;;;;;;-145.18;100.00;60484.78;5073600;28;20119;-69
2023/02/09 07:27:15;;;;;;;28.43;10.00;;;;;;;-145.18;100.00;60484.78;5072172;28;20127;-69
2023/02/09 07:29:41;;;;;;;19.60;9.67;;;;;;;-145.18;100.00;60484.78;5058524;28;20028;-69
2023/02/09 07:32:07;;;;;;;22.97;9.67;;;;;;;-145.18;100.00;60484.78;5055430;28;20079;-69
2023/02/09 07:34:33;;;;;;;21.50;9.13;;;;;;;-145.18;100.00;60484.78;5073234;28;20032;-69
2023/02/09 07:36:58;;;;;;;23.27;9.57;;;;;;;-145.18;100.00;60484.78;5072028;28;20602;-69
2023/02/09 07:39:24;;;;;;;21.73;10.00;;;;;;;-145.18;100.00;60484.78;5072642;28;20095;-69
2023/02/09 07:41:50;;;;;;;21.23;9.40;;;;;;;-145.18;100.00;60484.78;5071407;28;20027;-69
2023/02/09 07:44:15;;;;;;;21.73;10.33;;;;;;;-145.18;100.00;60484.78;5073499;28;20515;-69
2023/02/09 07:46:40;;;;;;;19.77;8.67;;;;;;;-145.18;100.00;60484.78;5054195;28;20020;-69
2023/02/09 07:49:06;;;;;;;20.37;9.50;;;;;;;-145.18;100.00;60484.78;5070344;28;20048;-69
2023/02/09 07:51:31;;;;;;;20.47;9.43;;;;;;;-145.18;100.00;60484.78;5069889;28;20028;-69
2023/02/09 07:53:58;;;;;;;20.63;8.83;;;;;;;-145.18;100.00;60484.78;5072334;28;20462;-69
2023/02/09 07:56:25;;;;;;;20.83;9.47;;;;;;;-145.18;100.00;60484.78;5072839;28;20549;-69
2023/02/09 07:58:51;;;;;;;21.13;9.00;;;;;;;-145.18;100.00;60484.78;5071891;28;20036;-69
2023/02/09 08:01:17;;;;;;;22.07;9.83;;;;;;;-145.18;100.00;60484.78;5069791;28;20027;-69
2023/02/09 08:03:45;;;;;;;21.93;10.03;;;;;;;-145.18;100.00;60484.78;5072473;28;20100;-68
2023/02/09 08:06:17;;;;;;;21.57;10.33;;;;;;;-145.18;100.00;60484.78;5071532;28;20020;-69
2023/02/09 08:08:43;;;;;;;;;;;;;;;-145.18;100.00;60484.78;5072650;28;20035;-68
2023/02/09 08:11:08;;;;;;;20.37;9.23;;;;;;;-145.18;100.00;60484.78;5068849;28;19912;-68
2023/02/09 08:13:36;;;;;;;20.87;10.07;;;;;;;-145.18;100.00;60484.78;5068620;28;20139;-68
2023/02/09 08:16:06;;;;;;;18.23;8.40;;;;;;;-145.18;100.00;60484.78;5072754;28;20055;-68
2023/02/09 08:18:47;;;;;;;20.53;10.07;;;;;;;-145.18;100.00;60484.78;5072069;28;20063;-68
2023/02/09 08:21:14;;;;;;;21.80;9.83;;;;;;;-145.18;100.00;60484.78;5070370;28;20022;-69
2023/02/09 08:23:42;;;;;;;20.10;9.37;;;;;;;-145.18;100.00;60484.78;5072969;28;20048;-68
2023/02/09 08:26:11;;;;;;;19.90;9.53;;;;;;;-145.18;100.00;60484.78;5071430;28;20020;-68
2023/02/09 08:28:42;;;;;;;18.23;7.30;;;;;;;-145.18;100.00;60484.78;5072597;28;20482;-68
2023/02/09 08:31:09;;;;;;;19.13;9.30;;;;;;;-145.18;100.00;60484.78;5069736;28;20020;-68
2023/02/09 08:33:34;;;;;;;18.57;8.87;;;;;;;-145.18;100.00;60484.78;5071781;28;20500;-68
2023/02/09 08:36:00;;;;;;;19.17;8.90;;;;;;;-145.18;100.00;60484.78;5070688;28;20042;-68
2023/02/09 08:38:25;;;;;;;18.57;8.93;;;;;;;-145.18;100.00;60484.78;5072621;28;20035;-68
2023/02/09 08:40:50;;;;;;;16.93;7.93;;;;;;;-145.18;100.00;60484.78;5071047;28;20033;-67
2023/02/09 08:43:16;;;;;;;15.73;8.43;;;;;;;-145.18;100.00;60484.78;5071022;28;20016;-68
2023/02/09 08:45:41;;;;;;;19.13;8.30;;;;;;;-145.18;100.00;60484.78;5071565;28;20028;-68
2023/02/09 08:48:09;;;;;;;19.13;9.40;;;;;;;-145.18;100.00;60484.78;5071264;28;20024;-68
2023/02/09 08:50:35;;;;;;;18.53;8.57;;;;;;;-145.18;100.00;60484.78;5071911;28;20025;-67
2023/02/09 08:53:01;;;;;;;21.13;9.37;;;;;;;-145.18;100.00;60484.78;5070841;28;20107;-68
2023/02/09 08:55:28;;;;;;;17.93;9.10;;;;;;;-145.18;100.00;60484.78;5071031;28;20124;-68
2023/02/09 08:57:54;;;;;;;22.23;9.43;;;;;;;-145.18;100.00;60484.78;5069184;28;20064;-67
2023/02/09 09:00:20;;;;;;;20.57;9.30;;;;;;;-145.18;100.00;60484.78;5070714;28;20118;-67
2023/02/09 09:02:45;;;;;;;19.33;8.93;;;;;;;-145.18;100.00;60484.78;5072081;28;20564;-67
2023/02/09 09:05:11;;;;;;;21.03;9.63;;;;;;;-145.18;100.00;60484.78;5071080;28;20431;-68
2023/02/09 09:07:36;;;;;;;18.70;8.87;;;;;;;-145.18;100.00;60484.78;5070414;28;20474;-67
2023/02/09 09:10:02;;;;;;;21.73;9.27;;;;;;;-145.18;100.00;60484.78;5069954;28;20403;-68
2023/02/09 09:12:29;;;;;;;24.10;10.43;;;;;;;-145.18;100.00;60484.78;5069926;28;20043;-68
2023/02/09 09:14:54;;;;;;;18.67;9.23;;;;;;;-145.18;100.00;60484.78;5071790;28;20032;-67
2023/02/09 09:17:20;;;;;;;15.77;8.00;;;;;;;-145.18;100.00;60484.78;5071426;28;20025;-68
2023/02/09 09:19:45;;;;;;;20.70;9.90;;;;;;;-145.18;100.00;60484.78;5071431;28;20033;-68
2023/02/09 09:22:11;;;;;;;19.03;9.53;;;;;;;-145.18;100.00;60484.78;5069847;28;20054;-67
2023/02/09 09:24:39;;;;;;;21.37;9.93;;;;;;;-145.18;100.00;60484.78;5070497;28;20456;-67
2023/02/09 09:27:09;;;;;;;21.10;9.77;;;;;;;-145.18;100.00;60484.78;5071928;28;20035;-68
2023/02/09 09:29:35;;;;;;;18.97;9.40;;;;;;;-145.18;100.00;60484.78;5071996;28;20040;-67
2023/02/09 09:32:01;;;;;;;17.00;9.30;;;;;;;-145.18;100.00;60484.78;5056975;28;20564;-68
2023/02/09 09:34:27;;;;;;;20.00;9.93;;;;;;;-145.18;100.00;60484.78;5060506;28;20468;-68
2023/02/09 09:36:52;;;;;;;21.17;9.10;;;;;;;-145.18;100.00;60484.78;5069764;28;20070;-67
2023/02/09 09:39:18;;;;;;;20.33;8.60;;;;;;;-145.18;100.00;60484.78;5067616;28;20031;-68
2023/02/09 09:41:47;;;;;;;19.70;9.87;;;;;;;-145.18;100.00;60484.78;5070657;28;20032;-67
2023/02/09 09:44:19;;;;;;;17.83;8.60;;;;;;;-145.18;100.00;60484.78;5070841;28;20479;-67
2023/02/09 09:46:51;;;;;;;22.05;9.82;;;;;;;-145.18;100.00;60484.78;5071845;28;20494;-68
2023/02/09 09:49:22;;;;;;;19.43;8.37;;;;;;;-145.18;100.00;60484.78;5063328;28;20048;-68
2023/02/09 09:51:54;;;;;;;19.20;10.15;;;;;;;-145.18;100.00;60484.78;5051469;28;20025;-67
2023/02/09 09:54:23;;;;;;;20.33;8.43;;;;;;;-145.18;100.00;60484.78;5052629;28;20047;-68
2023/02/09 09:56:50;;;;;;;17.37;7.83;;;;;;;-145.18;100.00;60484.78;5071246;28;20062;-67
2023/02/09 09:59:22;;;;;;;19.90;9.70;;;;;;;-145.18;100.00;60484.78;5071347;28;20043;-68
2023/02/09 10:01:50;;;;;;;19.80;9.53;;;;;;;-145.18;100.00;60484.78;5071274;28;20036;-68
2023/02/09 10:04:16;;;;;;;18.03;9.23;;;;;;;-145.18;100.00;60484.78;5070479;28;20048;-67
2023/02/09 10:06:44;;;;;;;26.03;10.00;;;;;;;-145.18;100.00;60484.78;5070975;28;20032;-67
2023/02/09 10:09:36;;;;;;;16.70;7.67;;;;;;;-145.18;100.00;60484.78;5067483;28;20028;-68
2023/02/09 10:12:15;;;;;;;16.50;8.53;;;;;;;-145.18;100.00;60484.78;5071275;28;20070;-67
2023/02/09 10:14:41;;;;;;;18.67;9.67;;;;;;;-145.18;100.00;60484.78;5071093;28;20115;-68
2023/02/09 10:17:07;;;;;;;22.13;9.90;;;;;;;-145.18;100.00;60484.78;5071094;28;20136;-67
2023/02/09 10:19:32;;;;;;;21.30;9.80;;;;;;;-145.18;100.00;60484.78;5062959;28;20025;-67
2023/02/09 10:21:58;;;;;;;22.63;9.53;;;;;;;-145.18;100.00;60484.78;5067259;28;20388;-67
2023/02/09 10:24:26;;;;;;;19.00;8.80;;;;;;;-145.18;100.00;60484.78;5069993;28;20529;-67
2023/02/09 10:27:12;;;;;;;17.10;7.83;;;;;;;-145.18;100.00;60484.78;5071131;28;20059;-68
2023/02/09 10:29:37;;;;;;;21.73;8.93;;;;;;;-145.18;100.00;60484.78;5069499;28;20036;-67
2023/02/09 10:32:05;;;;;;;18.63;10.03;;;;;;;-145.18;100.00;60484.78;5071250;28;20433;-67
2023/02/09 10:34:41;;;;;;;18.77;9.73;;;;;;;-145.18;100.00;60484.78;5070727;28;20024;-67
2023/02/09 10:37:34;;;;;;;17.00;8.63;;;;;;;-145.18;100.00;60484.78;5070841;28;20032;-68
2023/02/09 10:40:11;;;;;;;20.00;9.73;;;;;;;-145.18;100.00;60484.78;5056900;28;20023;-68
2023/02/09 10:42:41;;;;;;;19.63;9.23;;;;;;;-145.18;100.00;60484.78;5070901;28;20032;-67
2023/02/09 10:45:20;;;;;;;18.80;8.67;;;;;;;-145.18;100.00;60484.78;5068614;28;20055;-68
2023/02/09 10:47:57;;;;;;;19.60;9.50;;;;;;;-145.18;100.00;60484.78;5069127;28;20039;-68
2023/02/09 10:50:23;;;;;;;16.03;8.60;;;;;;;-145.18;100.00;60484.78;5072747;28;20115;-68
2023/02/09 10:52:57;;;;;;;19.77;8.80;;;;;;;-145.18;100.00;60484.78;5073025;28;20027;-67
2023/02/09 10:55:28;;;;;;;21.90;9.67;;;;;;;-145.18;100.00;60484.78;5073703;28;20415;-67
2023/02/09 10:58:09;;;;;;;16.52;8.77;;;;;;;-145.18;100.00;60484.78;5074390;28;20036;-67
2023/02/09 11:00:48;;;;;;;17.43;9.03;;;;;;;-145.18;100.00;60484.78;5074209;28;20085;-67
2023/02/09 11:03:26;;;;;;;18.63;9.43;;;;;;;-145.18;100.00;60484.78;5073911;28;20032;-67
2023/02/09 11:06:16;;;;;;;19.23;8.87;;;;;;;-145.18;100.00;60484.78;5071180;28;20492;-67
2023/02/09 11:08:47;;;;;;;18.23;8.70;;;;;;;-145.18;100.00;60484.78;5061523;28;20035;-67
2023/02/09 11:11:29;;;;;;;18.48;7.50;;;;;;;-145.18;100.00;60484.78;5074213;28;20025;-67